Carmel Valley, CA

1:39 PM PDT on April 28, 2015 (GMT -0700)
Cachagua Pug Farm | | Change Station
CLOSE
Current Station
Personal Weather Station
Location: Carmel Valley, CA
Elevation: 1240 ft
Nearby Weather Stations

Elev 1240 ft 36.39 °N, 121.61 °W | Updated 50 seconds ago

Partly Cloudy
Partly Cloudy
85.5 °F
Feels Like 84 °F
N
3.2
Wind Variable Wind from SE

Today
High -- | Low -- °F
--% Chance of Precip.
Yesterday
High -- | Low -- °F
Precip. -- in
6:17 AM 7:51 PM
Waxing Gibbous, 76% visible
Pressure 30.08 in
Visibility 10.0 miles
Clouds Overcast 1100 ft
Heat Index 84 °F
Dew Point 56 °F
Humidity 36%
Rainfall 0.00 in
Snow Depth Not available.
UV 3 out of 12
Pollen 7.70 out of 12
Air Quality Not available.
Flu Activity Sporadic
SPECI KMRY 282012Z 28008KT 10SM OVC011 15/10 A3008 RMK AO2 CIG 008V013

More Conditions Fewer Conditions

Pressure 30.08 in
Visibility 10.0 miles
Clouds Overcast 1100 ft
Heat Index 84 °F
Dew Point 56 °F
Humidity 36%
Rainfall 0.00 in
Snow Depth Not available.
UV 3 out of 12
Pollen 7.70 out of 12
Air Quality Not available.
Flu Activity Sporadic
SPECI KMRY 282012Z 28008KT 10SM OVC011 15/10 A3008 RMK AO2 CIG 008V013

More Conditions Fewer Conditions

10-Day Weather Forecast

Almanac

Astronomy

Apr. 28, 2015 Rise Set
Actual Time
Civil Twilight
Nautical Twilight
Astronomical Twilight
Moon
Length of Visible Light
Length of Day
Tomorrow will be .
, % of the Moon is Illuminated

Today's Extremes

State Highs State Lows

Community

WunderPhotos

Upload Photos

1,817,751 photos uploaded!

WunderBlogs® & News

Nearby

Air Quality

  Air Quality AQ Index Pollutant
Not available.

Snow Depth

Station Depth Elevation

Earthquake Activity

City Distance Mag. Time & Date
Minimum magnitude displayed is 2.5.

Coastal Water Temperatures

Place Temperature

Stations

Nearby Weather Stations

Station Location Temp. Windchill Dew Point Humidity Wind Precip. Elev Updated Type